sensor_id;sensor_type;location;lat;lon;timestamp;P1;durP1;ratioP1;P2;durP2;ratioP2
6135;SDS011;24008;42.664;23.372;2023-08-06T00:00:20;7.10;;;5.07;;
6135;SDS011;24008;42.664;23.372;2023-08-06T00:02:47;6.53;;;4.90;;
6135;SDS011;24008;42.664;23.372;2023-08-06T00:05:14;5.80;;;4.47;;
6135;SDS011;24008;42.664;23.372;2023-08-06T00:07:43;5.70;;;4.97;;
6135;SDS011;24008;42.664;23.372;2023-08-06T00:10:11;5.87;;;4.50;;
6135;SDS011;24008;42.664;23.372;2023-08-06T00:12:38;9.03;;;5.23;;
6135;SDS011;24008;42.664;23.372;2023-08-06T00:15:05;5.10;;;4.20;;
6135;SDS011;24008;42.664;23.372;2023-08-06T00:17:33;8.03;;;5.00;;
6135;SDS011;24008;42.664;23.372;2023-08-06T00:20:00;7.10;;;4.87;;
6135;SDS011;24008;42.664;23.372;2023-08-06T00:22:29;7.83;;;5.00;;
6135;SDS011;24008;42.664;23.372;2023-08-06T00:24:56;6.23;;;4.80;;
6135;SDS011;24008;42.664;23.372;2023-08-06T00:27:25;6.73;;;4.93;;
6135;SDS011;24008;42.664;23.372;2023-08-06T00:29:52;9.13;;;5.60;;
6135;SDS011;24008;42.664;23.372;2023-08-06T00:32:18;7.00;;;5.17;;
6135;SDS011;24008;42.664;23.372;2023-08-06T00:34:45;7.57;;;5.10;;
6135;SDS011;24008;42.664;23.372;2023-08-06T00:37:14;6.07;;;5.10;;
6135;SDS011;24008;42.664;23.372;2023-08-06T00:39:41;12.43;;;5.30;;
6135;SDS011;24008;42.664;23.372;2023-08-06T00:42:08;6.23;;;5.23;;
6135;SDS011;24008;42.664;23.372;2023-08-06T00:44:37;6.67;;;5.33;;
6135;SDS011;24008;42.664;23.372;2023-08-06T00:47:04;10.23;;;5.73;;
6135;SDS011;24008;42.664;23.372;2023-08-06T00:49:32;9.03;;;5.80;;
6135;SDS011;24008;42.664;23.372;2023-08-06T00:51:59;8.00;;;5.23;;
6135;SDS011;24008;42.664;23.372;2023-08-06T00:54:26;6.93;;;5.47;;
6135;SDS011;24008;42.664;23.372;2023-08-06T00:56:54;5.97;;;5.07;;
6135;SDS011;24008;42.664;23.372;2023-08-06T00:59:22;7.37;;;5.90;;
6135;SDS011;24008;42.664;23.372;2023-08-06T01:01:50;7.13;;;5.90;;
6135;SDS011;24008;42.664;23.372;2023-08-06T01:04:18;7.87;;;5.90;;
6135;SDS011;24008;42.664;23.372;2023-08-06T01:06:46;8.20;;;5.83;;
6135;SDS011;24008;42.664;23.372;2023-08-06T01:09:19;8.53;;;5.83;;
6135;SDS011;24008;42.664;23.372;2023-08-06T01:11:56;9.53;;;6.83;;
6135;SDS011;24008;42.664;23.372;2023-08-06T01:14:31;10.77;;;6.00;;
6135;SDS011;24008;42.664;23.372;2023-08-06T01:17:05;11.97;;;6.70;;
6135;SDS011;24008;42.664;23.372;2023-08-06T01:19:33;9.10;;;5.93;;
6135;SDS011;24008;42.664;23.372;2023-08-06T01:22:02;8.53;;;5.93;;
6135;SDS011;24008;42.664;23.372;2023-08-06T01:24:29;8.70;;;6.27;;
6135;SDS011;24008;42.664;23.372;2023-08-06T01:26:58;11.43;;;6.50;;
6135;SDS011;24008;42.664;23.372;2023-08-06T01:29:31;8.73;;;6.47;;
6135;SDS011;24008;42.664;23.372;2023-08-06T01:32:01;8.70;;;6.43;;
6135;SDS011;24008;42.664;23.372;2023-08-06T01:34:31;8.83;;;7.03;;
6135;SDS011;24008;42.664;23.372;2023-08-06T01:37:01;9.10;;;6.57;;
6135;SDS011;24008;42.664;23.372;2023-08-06T01:39:29;9.33;;;6.57;;
6135;SDS011;24008;42.664;23.372;2023-08-06T01:41:59;11.77;;;7.17;;
6135;SDS011;24008;42.664;23.372;2023-08-06T01:44:26;8.33;;;7.07;;
6135;SDS011;24008;42.664;23.372;2023-08-06T01:46:53;8.53;;;7.00;;
6135;SDS011;24008;42.664;23.372;2023-08-06T01:49:19;8.07;;;6.53;;
6135;SDS011;24008;42.664;23.372;2023-08-06T01:51:46;10.67;;;6.93;;
6135;SDS011;24008;42.664;23.372;2023-08-06T01:54:14;8.50;;;6.60;;
6135;SDS011;24008;42.664;23.372;2023-08-06T01:56:41;8.33;;;6.90;;
6135;SDS011;24008;42.664;23.372;2023-08-06T01:59:08;12.73;;;7.07;;
6135;SDS011;24008;42.664;23.372;2023-08-06T02:01:34;9.27;;;7.07;;
6135;SDS011;24008;42.664;23.372;2023-08-06T02:04:01;13.53;;;8.83;;
6135;SDS011;24008;42.664;23.372;2023-08-06T02:06:28;13.90;;;10.37;;
6135;SDS011;24008;42.664;23.372;2023-08-06T02:08:55;17.37;;;11.80;;
6135;SDS011;24008;42.664;23.372;2023-08-06T02:11:23;16.50;;;11.60;;
6135;SDS011;24008;42.664;23.372;2023-08-06T02:13:50;16.47;;;11.60;;
6135;SDS011;24008;42.664;23.372;2023-08-06T02:16:17;18.83;;;12.63;;
6135;SDS011;24008;42.664;23.372;2023-08-06T02:18:43;15.83;;;11.33;;
6135;SDS011;24008;42.664;23.372;2023-08-06T02:21:10;17.67;;;11.30;;
6135;SDS011;24008;42.664;23.372;2023-08-06T02:23:37;16.00;;;10.47;;
6135;SDS011;24008;42.664;23.372;2023-08-06T02:26:04;14.13;;;8.87;;
6135;SDS011;24008;42.664;23.372;2023-08-06T02:28:32;11.30;;;8.93;;
6135;SDS011;24008;42.664;23.372;2023-08-06T02:30:59;10.10;;;7.87;;
6135;SDS011;24008;42.664;23.372;2023-08-06T02:33:26;7.83;;;6.40;;
6135;SDS011;24008;42.664;23.372;2023-08-06T02:35:58;10.33;;;6.60;;
6135;SDS011;24008;42.664;23.372;2023-08-06T02:38:26;7.90;;;6.40;;
6135;SDS011;24008;42.664;23.372;2023-08-06T02:40:53;9.27;;;6.47;;
6135;SDS011;24008;42.664;23.372;2023-08-06T02:43:19;7.63;;;5.50;;
6135;SDS011;24008;42.664;23.372;2023-08-06T02:45:47;7.33;;;6.50;;
6135;SDS011;24008;42.664;23.372;2023-08-06T02:48:14;8.07;;;6.03;;
6135;SDS011;24008;42.664;23.372;2023-08-06T02:50:44;6.80;;;6.10;;
6135;SDS011;24008;42.664;23.372;2023-08-06T02:53:11;7.83;;;6.33;;
6135;SDS011;24008;42.664;23.372;2023-08-06T02:55:37;7.83;;;6.60;;
6135;SDS011;24008;42.664;23.372;2023-08-06T02:58:11;5.50;;;4.90;;
6135;SDS011;24008;42.664;23.372;2023-08-06T03:00:38;7.03;;;5.10;;
6135;SDS011;24008;42.664;23.372;2023-08-06T03:03:06;6.33;;;5.43;;
6135;SDS011;24008;42.664;23.372;2023-08-06T03:05:33;6.23;;;5.33;;
6135;SDS011;24008;42.664;23.372;2023-08-06T03:08:00;6.80;;;4.80;;
6135;SDS011;24008;42.664;23.372;2023-08-06T03:10:27;8.90;;;5.40;;
6135;SDS011;24008;42.664;23.372;2023-08-06T03:12:53;8.17;;;5.60;;
6135;SDS011;24008;42.664;23.372;2023-08-06T03:15:20;7.97;;;5.67;;
6135;SDS011;24008;42.664;23.372;2023-08-06T03:17:47;9.47;;;6.20;;
6135;SDS011;24008;42.664;23.372;2023-08-06T03:20:15;13.03;;;6.00;;
6135;SDS011;24008;42.664;23.372;2023-08-06T03:22:42;9.43;;;6.03;;
6135;SDS011;24008;42.664;23.372;2023-08-06T03:25:08;7.63;;;5.90;;
6135;SDS011;24008;42.664;23.372;2023-08-06T03:27:35;9.37;;;5.93;;
6135;SDS011;24008;42.664;23.372;2023-08-06T03:30:02;8.07;;;6.00;;
6135;SDS011;24008;42.664;23.372;2023-08-06T03:32:29;9.03;;;6.50;;
6135;SDS011;24008;42.664;23.372;2023-08-06T03:34:56;9.00;;;6.43;;
6135;SDS011;24008;42.664;23.372;2023-08-06T03:37:24;7.57;;;6.50;;
6135;SDS011;24008;42.664;23.372;2023-08-06T03:39:51;9.33;;;6.07;;
6135;SDS011;24008;42.664;23.372;2023-08-06T03:42:18;8.17;;;6.70;;
6135;SDS011;24008;42.664;23.372;2023-08-06T03:44:44;9.03;;;6.63;;
6135;SDS011;24008;42.664;23.372;2023-08-06T03:47:12;7.53;;;5.97;;
6135;SDS011;24008;42.664;23.372;2023-08-06T03:49:39;9.90;;;6.87;;
6135;SDS011;24008;42.664;23.372;2023-08-06T03:52:06;8.17;;;6.20;;
6135;SDS011;24008;42.664;23.372;2023-08-06T03:54:34;6.93;;;5.83;;
6135;SDS011;24008;42.664;23.372;2023-08-06T03:57:01;8.90;;;6.47;;
6135;SDS011;24008;42.664;23.372;2023-08-06T03:59:28;13.47;;;7.07;;
6135;SDS011;24008;42.664;23.372;2023-08-06T04:01:55;7.47;;;6.17;;
6135;SDS011;24008;42.664;23.372;2023-08-06T04:04:22;9.30;;;6.90;;
6135;SDS011;24008;42.664;23.372;2023-08-06T04:06:48;11.00;;;6.73;;
6135;SDS011;24008;42.664;23.372;2023-08-06T04:09:15;8.43;;;6.30;;
6135;SDS011;24008;42.664;23.372;2023-08-06T04:11:44;7.17;;;5.60;;
6135;SDS011;24008;42.664;23.372;2023-08-06T04:14:10;7.40;;;5.57;;
6135;SDS011;24008;42.664;23.372;2023-08-06T04:16:37;8.23;;;5.87;;
6135;SDS011;24008;42.664;23.372;2023-08-06T04:19:04;7.10;;;5.50;;
6135;SDS011;24008;42.664;23.372;2023-08-06T04:21:31;5.90;;;5.27;;
6135;SDS011;24008;42.664;23.372;2023-08-06T04:23:57;8.57;;;6.23;;
6135;SDS011;24008;42.664;23.372;2023-08-06T04:26:24;7.43;;;5.90;;
6135;SDS011;24008;42.664;23.372;2023-08-06T04:28:52;7.47;;;6.43;;
6135;SDS011;24008;42.664;23.372;2023-08-06T04:31:19;8.20;;;6.80;;
6135;SDS011;24008;42.664;23.372;2023-08-06T04:33:45;7.53;;;6.23;;
6135;SDS011;24008;42.664;23.372;2023-08-06T04:36:12;11.50;;;6.53;;
6135;SDS011;24008;42.664;23.372;2023-08-06T04:38:39;10.37;;;6.43;;
6135;SDS011;24008;42.664;23.372;2023-08-06T04:41:09;6.90;;;5.80;;
6135;SDS011;24008;42.664;23.372;2023-08-06T04:43:38;11.23;;;9.33;;
6135;SDS011;24008;42.664;23.372;2023-08-06T04:46:06;23.20;;;18.70;;
6135;SDS011;24008;42.664;23.372;2023-08-06T04:48:33;36.83;;;26.00;;
6135;SDS011;24008;42.664;23.372;2023-08-06T04:50:59;22.67;;;14.87;;
6135;SDS011;24008;42.664;23.372;2023-08-06T04:53:26;10.87;;;8.00;;
6135;SDS011;24008;42.664;23.372;2023-08-06T04:55:53;7.33;;;6.53;;
6135;SDS011;24008;42.664;23.372;2023-08-06T04:58:19;9.90;;;7.40;;
6135;SDS011;24008;42.664;23.372;2023-08-06T05:00:46;9.03;;;6.73;;
6135;SDS011;24008;42.664;23.372;2023-08-06T05:03:14;8.63;;;6.97;;
6135;SDS011;24008;42.664;23.372;2023-08-06T05:05:41;7.77;;;6.03;;
6135;SDS011;24008;42.664;23.372;2023-08-06T05:08:13;6.67;;;6.03;;
6135;SDS011;24008;42.664;23.372;2023-08-06T05:10:42;7.97;;;6.67;;
6135;SDS011;24008;42.664;23.372;2023-08-06T05:13:08;46.13;;;33.17;;
6135;SDS011;24008;42.664;23.372;2023-08-06T05:15:35;9.30;;;6.80;;
6135;SDS011;24008;42.664;23.372;2023-08-06T05:18:02;7.57;;;6.13;;
6135;SDS011;24008;42.664;23.372;2023-08-06T05:20:30;7.57;;;6.33;;
6135;SDS011;24008;42.664;23.372;2023-08-06T05:22:57;7.70;;;6.87;;
6135;SDS011;24008;42.664;23.372;2023-08-06T05:25:24;17.83;;;12.27;;
6135;SDS011;24008;42.664;23.372;2023-08-06T05:27:51;10.30;;;7.43;;
6135;SDS011;24008;42.664;23.372;2023-08-06T05:30:18;10.00;;;6.90;;
6135;SDS011;24008;42.664;23.372;2023-08-06T05:32:45;7.10;;;6.40;;
6135;SDS011;24008;42.664;23.372;2023-08-06T05:35:11;7.87;;;6.50;;
6135;SDS011;24008;42.664;23.372;2023-08-06T05:37:40;8.85;;;5.95;;
6135;SDS011;24008;42.664;23.372;2023-08-06T05:40:07;7.93;;;6.55;;
6135;SDS011;24008;42.664;23.372;2023-08-06T05:42:34;7.13;;;6.05;;
6135;SDS011;24008;42.664;23.372;2023-08-06T05:45:01;8.10;;;6.38;;
6135;SDS011;24008;42.664;23.372;2023-08-06T05:47:27;8.25;;;7.45;;
6135;SDS011;24008;42.664;23.372;2023-08-06T05:49:54;9.60;;;7.75;;
6135;SDS011;24008;42.664;23.372;2023-08-06T05:52:21;10.20;;;7.90;;
6135;SDS011;24008;42.664;23.372;2023-08-06T05:54:49;11.85;;;8.70;;
6135;SDS011;24008;42.664;23.372;2023-08-06T05:57:16;10.95;;;9.18;;
6135;SDS011;24008;42.664;23.372;2023-08-06T05:59:43;9.98;;;8.60;;
6135;SDS011;24008;42.664;23.372;2023-08-06T06:02:10;8.98;;;7.40;;
6135;SDS011;24008;42.664;23.372;2023-08-06T06:04:37;8.52;;;6.63;;
6135;SDS011;24008;42.664;23.372;2023-08-06T06:07:04;5.38;;;4.85;;
6135;SDS011;24008;42.664;23.372;2023-08-06T06:09:30;4.20;;;3.78;;
6135;SDS011;24008;42.664;23.372;2023-08-06T06:11:59;4.35;;;3.40;;
6135;SDS011;24008;42.664;23.372;2023-08-06T06:14:25;3.22;;;2.88;;
6135;SDS011;24008;42.664;23.372;2023-08-06T06:16:52;4.38;;;3.30;;
6135;SDS011;24008;42.664;23.372;2023-08-06T06:19:19;4.20;;;3.30;;
6135;SDS011;24008;42.664;23.372;2023-08-06T06:21:46;4.18;;;2.60;;
6135;SDS011;24008;42.664;23.372;2023-08-06T06:24:12;3.20;;;2.72;;
6135;SDS011;24008;42.664;23.372;2023-08-06T06:26:39;3.58;;;2.67;;
6135;SDS011;24008;42.664;23.372;2023-08-06T06:29:07;3.92;;;2.45;;
6135;SDS011;24008;42.664;23.372;2023-08-06T06:31:34;5.20;;;2.53;;
6135;SDS011;24008;42.664;23.372;2023-08-06T06:34:01;2.58;;;2.38;;
6135;SDS011;24008;42.664;23.372;2023-08-06T06:36:28;4.43;;;2.55;;
6135;SDS011;24008;42.664;23.372;2023-08-06T06:38:54;3.10;;;2.47;;
6135;SDS011;24008;42.664;23.372;2023-08-06T06:41:21;3.55;;;2.70;;
6135;SDS011;24008;42.664;23.372;2023-08-06T06:43:49;5.03;;;2.83;;
6135;SDS011;24008;42.664;23.372;2023-08-06T06:46:17;3.35;;;2.55;;
6135;SDS011;24008;42.664;23.372;2023-08-06T06:48:43;4.55;;;3.10;;
6135;SDS011;24008;42.664;23.372;2023-08-06T06:51:10;4.40;;;2.70;;
6135;SDS011;24008;42.664;23.372;2023-08-06T06:53:37;2.65;;;2.33;;
6135;SDS011;24008;42.664;23.372;2023-08-06T06:56:04;2.53;;;2.00;;
6135;SDS011;24008;42.664;23.372;2023-08-06T06:58:31;3.38;;;2.40;;
6135;SDS011;24008;42.664;23.372;2023-08-06T07:00:58;3.13;;;2.33;;
6135;SDS011;24008;42.664;23.372;2023-08-06T07:03:26;3.50;;;2.40;;
6135;SDS011;24008;42.664;23.372;2023-08-06T07:05:56;3.65;;;2.25;;
6135;SDS011;24008;42.664;23.372;2023-08-06T07:08:23;2.58;;;2.33;;
6135;SDS011;24008;42.664;23.372;2023-08-06T07:10:50;3.35;;;3.03;;
6135;SDS011;24008;42.664;23.372;2023-08-06T07:13:17;6.32;;;5.72;;
6135;SDS011;24008;42.664;23.372;2023-08-06T07:15:44;3.60;;;2.70;;
6135;SDS011;24008;42.664;23.372;2023-08-06T07:18:10;4.47;;;2.60;;
6135;SDS011;24008;42.664;23.372;2023-08-06T07:20:38;3.30;;;2.55;;
6135;SDS011;24008;42.664;23.372;2023-08-06T07:23:05;4.40;;;2.58;;
6135;SDS011;24008;42.664;23.372;2023-08-06T07:25:32;5.35;;;3.22;;
6135;SDS011;24008;42.664;23.372;2023-08-06T07:27:59;4.10;;;3.50;;
6135;SDS011;24008;42.664;23.372;2023-08-06T07:30:27;4.13;;;3.15;;
6135;SDS011;24008;42.664;23.372;2023-08-06T07:32:54;4.13;;;3.30;;
6135;SDS011;24008;42.664;23.372;2023-08-06T07:35:20;3.50;;;3.20;;
6135;SDS011;24008;42.664;23.372;2023-08-06T07:37:49;4.32;;;2.92;;
6135;SDS011;24008;42.664;23.372;2023-08-06T07:40:15;4.30;;;3.10;;
6135;SDS011;24008;42.664;23.372;2023-08-06T07:42:42;3.15;;;2.85;;
6135;SDS011;24008;42.664;23.372;2023-08-06T07:45:09;3.70;;;3.30;;
6135;SDS011;24008;42.664;23.372;2023-08-06T07:47:36;3.20;;;2.88;;
6135;SDS011;24008;42.664;23.372;2023-08-06T07:50:03;3.30;;;3.00;;
6135;SDS011;24008;42.664;23.372;2023-08-06T07:52:30;4.25;;;2.78;;
6135;SDS011;24008;42.664;23.372;2023-08-06T07:54:58;2.92;;;2.63;;
6135;SDS011;24008;42.664;23.372;2023-08-06T07:57:26;3.70;;;2.78;;
6135;SDS011;24008;42.664;23.372;2023-08-06T07:59:53;2.85;;;2.65;;
6135;SDS011;24008;42.664;23.372;2023-08-06T08:02:20;3.08;;;2.85;;
6135;SDS011;24008;42.664;23.372;2023-08-06T08:04:47;2.75;;;2.53;;
6135;SDS011;24008;42.664;23.372;2023-08-06T08:07:13;2.75;;;2.55;;
6135;SDS011;24008;42.664;23.372;2023-08-06T08:09:40;3.75;;;2.95;;
6135;SDS011;24008;42.664;23.372;2023-08-06T08:12:09;3.20;;;2.47;;
6135;SDS011;24008;42.664;23.372;2023-08-06T08:14:35;3.50;;;3.00;;
6135;SDS011;24008;42.664;23.372;2023-08-06T08:17:02;3.22;;;2.92;;
6135;SDS011;24008;42.664;23.372;2023-08-06T08:19:30;4.40;;;2.88;;
6135;SDS011;24008;42.664;23.372;2023-08-06T08:21:57;4.95;;;2.97;;
6135;SDS011;24008;42.664;23.372;2023-08-06T08:24:24;3.15;;;2.85;;
6135;SDS011;24008;42.664;23.372;2023-08-06T08:26:52;4.07;;;3.30;;
6135;SDS011;24008;42.664;23.372;2023-08-06T08:29:20;3.47;;;3.03;;
6135;SDS011;24008;42.664;23.372;2023-08-06T08:31:47;6.95;;;3.30;;
6135;SDS011;24008;42.664;23.372;2023-08-06T08:34:15;4.60;;;3.40;;
6135;SDS011;24008;42.664;23.372;2023-08-06T08:36:42;4.13;;;3.20;;
6135;SDS011;24008;42.664;23.372;2023-08-06T08:39:11;4.85;;;3.50;;
6135;SDS011;24008;42.664;23.372;2023-08-06T08:41:38;5.05;;;3.10;;
6135;SDS011;24008;42.664;23.372;2023-08-06T08:44:07;5.88;;;3.50;;
6135;SDS011;24008;42.664;23.372;2023-08-06T08:46:37;4.45;;;3.17;;
6135;SDS011;24008;42.664;23.372;2023-08-06T08:49:04;4.90;;;3.03;;
6135;SDS011;24008;42.664;23.372;2023-08-06T08:51:32;3.58;;;3.20;;
6135;SDS011;24008;42.664;23.372;2023-08-06T08:54:00;3.30;;;2.85;;
6135;SDS011;24008;42.664;23.372;2023-08-06T08:56:29;3.70;;;2.88;;
6135;SDS011;24008;42.664;23.372;2023-08-06T08:58:57;5.20;;;3.25;;
6135;SDS011;24008;42.664;23.372;2023-08-06T09:01:24;3.42;;;3.13;;
6135;SDS011;24008;42.664;23.372;2023-08-06T09:03:54;3.63;;;3.08;;
6135;SDS011;24008;42.664;23.372;2023-08-06T09:06:24;3.67;;;3.30;;
6135;SDS011;24008;42.664;23.372;2023-08-06T09:08:54;3.63;;;3.33;;
6135;SDS011;24008;42.664;23.372;2023-08-06T09:11:27;5.18;;;3.08;;
6135;SDS011;24008;42.664;23.372;2023-08-06T09:14:04;3.53;;;3.20;;
6135;SDS011;24008;42.664;23.372;2023-08-06T09:16:34;3.35;;;3.15;;
6135;SDS011;24008;42.664;23.372;2023-08-06T09:19:07;8.00;;;3.92;;
6135;SDS011;24008;42.664;23.372;2023-08-06T09:21:36;3.67;;;3.30;;
6135;SDS011;24008;42.664;23.372;2023-08-06T09:24:07;5.75;;;3.17;;
6135;SDS011;24008;42.664;23.372;2023-08-06T09:26:35;3.30;;;3.00;;
6135;SDS011;24008;42.664;23.372;2023-08-06T09:29:04;3.53;;;3.20;;
6135;SDS011;24008;42.664;23.372;2023-08-06T09:31:32;3.90;;;3.50;;
6135;SDS011;24008;42.664;23.372;2023-08-06T09:33:59;3.42;;;3.10;;
6135;SDS011;24008;42.664;23.372;2023-08-06T09:36:28;3.80;;;3.10;;
6135;SDS011;24008;42.664;23.372;2023-08-06T09:38:55;3.97;;;3.05;;
6135;SDS011;24008;42.664;23.372;2023-08-06T09:41:26;2.90;;;2.67;;
6135;SDS011;24008;42.664;23.372;2023-08-06T09:43:53;3.47;;;3.15;;
6135;SDS011;24008;42.664;23.372;2023-08-06T09:46:20;3.42;;;3.10;;
6135;SDS011;24008;42.664;23.372;2023-08-06T09:48:47;3.60;;;3.08;;
6135;SDS011;24008;42.664;23.372;2023-08-06T09:51:15;4.45;;;2.42;;
6135;SDS011;24008;42.664;23.372;2023-08-06T09:53:44;2.33;;;2.13;;
6135;SDS011;24008;42.664;23.372;2023-08-06T09:56:13;2.67;;;2.47;;
6135;SDS011;24008;42.664;23.372;2023-08-06T09:58:41;2.78;;;2.40;;
6135;SDS011;24008;42.664;23.372;2023-08-06T10:01:08;3.67;;;2.50;;
6135;SDS011;24008;42.664;23.372;2023-08-06T10:03:37;3.28;;;2.72;;
6135;SDS011;24008;42.664;23.372;2023-08-06T10:06:06;4.22;;;2.92;;
6135;SDS011;24008;42.664;23.372;2023-08-06T10:08:34;3.15;;;2.80;;
6135;SDS011;24008;42.664;23.372;2023-08-06T10:11:02;3.35;;;2.50;;
6135;SDS011;24008;42.664;23.372;2023-08-06T10:13:30;2.47;;;1.75;;
6135;SDS011;24008;42.664;23.372;2023-08-06T10:15:59;3.17;;;2.42;;
6135;SDS011;24008;42.664;23.372;2023-08-06T10:18:27;4.22;;;2.22;;
6135;SDS011;24008;42.664;23.372;2023-08-06T10:20:54;2.60;;;2.40;;
6135;SDS011;24008;42.664;23.372;2023-08-06T10:23:21;3.70;;;2.50;;
6135;SDS011;24008;42.664;23.372;2023-08-06T10:25:59;3.30;;;2.35;;
6135;SDS011;24008;42.664;23.372;2023-08-06T10:28:35;2.67;;;2.22;;
6135;SDS011;24008;42.664;23.372;2023-08-06T10:31:02;3.35;;;2.67;;
6135;SDS011;24008;42.664;23.372;2023-08-06T10:33:40;4.07;;;2.65;;
6135;SDS011;24008;42.664;23.372;2023-08-06T10:36:08;3.35;;;2.80;;
6135;SDS011;24008;42.664;23.372;2023-08-06T10:38:36;3.85;;;2.63;;
6135;SDS011;24008;42.664;23.372;2023-08-06T10:41:14;2.92;;;2.55;;
6135;SDS011;24008;42.664;23.372;2023-08-06T10:43:44;3.10;;;2.80;;
6135;SDS011;24008;42.664;23.372;2023-08-06T10:46:21;6.13;;;3.00;;
6135;SDS011;24008;42.664;23.372;2023-08-06T10:48:50;5.20;;;3.13;;
6135;SDS011;24008;42.664;23.372;2023-08-06T10:51:17;3.13;;;2.83;;
6135;SDS011;24008;42.664;23.372;2023-08-06T10:53:44;4.32;;;3.03;;
6135;SDS011;24008;42.664;23.372;2023-08-06T10:56:12;4.32;;;2.95;;
6135;SDS011;24008;42.664;23.372;2023-08-06T10:58:40;3.92;;;3.35;;
6135;SDS011;24008;42.664;23.372;2023-08-06T11:01:08;3.58;;;3.15;;
6135;SDS011;24008;42.664;23.372;2023-08-06T11:03:35;4.97;;;3.17;;
6135;SDS011;24008;42.664;23.372;2023-08-06T11:06:02;3.65;;;3.05;;
6135;SDS011;24008;42.664;23.372;2023-08-06T11:08:33;5.45;;;3.40;;
6135;SDS011;24008;42.664;23.372;2023-08-06T11:11:08;4.38;;;3.08;;
6135;SDS011;24008;42.664;23.372;2023-08-06T11:13:40;3.40;;;3.10;;
6135;SDS011;24008;42.664;23.372;2023-08-06T11:16:13;4.10;;;3.10;;
6135;SDS011;24008;42.664;23.372;2023-08-06T11:18:43;3.22;;;2.92;;
6135;SDS011;24008;42.664;23.372;2023-08-06T11:21:10;3.25;;;2.95;;
6135;SDS011;24008;42.664;23.372;2023-08-06T11:23:38;3.55;;;3.20;;
6135;SDS011;24008;42.664;23.372;2023-08-06T11:26:05;3.58;;;3.17;;
6135;SDS011;24008;42.664;23.372;2023-08-06T11:28:32;3.60;;;3.30;;
6135;SDS011;24008;42.664;23.372;2023-08-06T11:30:59;4.03;;;2.95;;
6135;SDS011;24008;42.664;23.372;2023-08-06T11:33:28;3.50;;;3.20;;
6135;SDS011;24008;42.664;23.372;2023-08-06T11:35:56;4.22;;;3.13;;
6135;SDS011;24008;42.664;23.372;2023-08-06T11:38:24;3.97;;;3.42;;
6135;SDS011;24008;42.664;23.372;2023-08-06T11:40:51;3.88;;;3.58;;
6135;SDS011;24008;42.664;23.372;2023-08-06T11:43:18;4.75;;;3.90;;
6135;SDS011;24008;42.664;23.372;2023-08-06T11:45:46;5.05;;;4.18;;
6135;SDS011;24008;42.664;23.372;2023-08-06T11:48:12;6.32;;;4.43;;
6135;SDS011;24008;42.664;23.372;2023-08-06T11:50:41;5.25;;;4.45;;
6135;SDS011;24008;42.664;23.372;2023-08-06T11:53:11;5.25;;;4.13;;
6135;SDS011;24008;42.664;23.372;2023-08-06T11:55:38;6.70;;;4.35;;
6135;SDS011;24008;42.664;23.372;2023-08-06T11:58:05;5.20;;;4.60;;
6135;SDS011;24008;42.664;23.372;2023-08-06T12:00:32;6.05;;;5.00;;
6135;SDS011;24008;42.664;23.372;2023-08-06T12:02:59;5.13;;;4.63;;
6135;SDS011;24008;42.664;23.372;2023-08-06T12:05:29;4.88;;;4.47;;
6135;SDS011;24008;42.664;23.372;2023-08-06T12:07:59;5.13;;;4.57;;
6135;SDS011;24008;42.664;23.372;2023-08-06T12:10:28;6.53;;;4.95;;
6135;SDS011;24008;42.664;23.372;2023-08-06T12:12:55;4.60;;;4.20;;
6135;SDS011;24008;42.664;23.372;2023-08-06T12:15:22;5.00;;;4.50;;
6135;SDS011;24008;42.664;23.372;2023-08-06T12:17:50;5.40;;;4.90;;
6135;SDS011;24008;42.664;23.372;2023-08-06T12:20:17;6.50;;;5.45;;
6135;SDS011;24008;42.664;23.372;2023-08-06T12:22:43;6.78;;;5.10;;
6135;SDS011;24008;42.664;23.372;2023-08-06T12:25:12;6.25;;;5.60;;
6135;SDS011;24008;42.664;23.372;2023-08-06T12:27:40;6.63;;;5.28;;
6135;SDS011;24008;42.664;23.372;2023-08-06T12:30:07;6.60;;;5.45;;
6135;SDS011;24008;42.664;23.372;2023-08-06T12:32:35;6.20;;;5.60;;
6135;SDS011;24008;42.664;23.372;2023-08-06T12:35:02;7.38;;;5.97;;
6135;SDS011;24008;42.664;23.372;2023-08-06T12:37:29;6.97;;;5.90;;
6135;SDS011;24008;42.664;23.372;2023-08-06T12:39:56;6.25;;;5.65;;
6135;SDS011;24008;42.664;23.372;2023-08-06T12:42:24;7.32;;;6.53;;
6135;SDS011;24008;42.664;23.372;2023-08-06T12:44:51;6.60;;;5.93;;
6135;SDS011;24008;42.664;23.372;2023-08-06T12:47:18;6.60;;;6.00;;
6135;SDS011;24008;42.664;23.372;2023-08-06T12:49:46;7.20;;;6.60;;
6135;SDS011;24008;42.664;23.372;2023-08-06T12:52:12;7.72;;;6.25;;
6135;SDS011;24008;42.664;23.372;2023-08-06T12:54:40;7.03;;;6.38;;
6135;SDS011;24008;42.664;23.372;2023-08-06T12:57:07;7.35;;;6.55;;
6135;SDS011;24008;42.664;23.372;2023-08-06T12:59:35;7.50;;;6.45;;
6135;SDS011;24008;42.664;23.372;2023-08-06T13:02:02;6.70;;;6.07;;
6135;SDS011;24008;42.664;23.372;2023-08-06T13:04:29;6.72;;;6.05;;
6135;SDS011;24008;42.664;23.372;2023-08-06T13:06:56;6.78;;;6.15;;
6135;SDS011;24008;42.664;23.372;2023-08-06T13:09:22;8.15;;;7.05;;
6135;SDS011;24008;42.664;23.372;2023-08-06T13:11:49;9.25;;;6.88;;
6135;SDS011;24008;42.664;23.372;2023-08-06T13:14:16;7.68;;;6.75;;
6135;SDS011;24008;42.664;23.372;2023-08-06T13:16:45;7.85;;;6.10;;
6135;SDS011;24008;42.664;23.372;2023-08-06T13:19:11;7.13;;;6.25;;
6135;SDS011;24008;42.664;23.372;2023-08-06T13:21:58;7.13;;;6.35;;
6135;SDS011;24008;42.664;23.372;2023-08-06T13:24:26;7.95;;;6.10;;
6135;SDS011;24008;42.664;23.372;2023-08-06T13:26:53;10.52;;;6.22;;
6135;SDS011;24008;42.664;23.372;2023-08-06T13:29:20;6.65;;;6.10;;
6135;SDS011;24008;42.664;23.372;2023-08-06T13:31:48;6.53;;;5.93;;
6135;SDS011;24008;42.664;23.372;2023-08-06T13:34:15;7.70;;;6.10;;
6135;SDS011;24008;42.664;23.372;2023-08-06T13:36:42;7.07;;;6.38;;
6135;SDS011;24008;42.664;23.372;2023-08-06T13:39:10;6.93;;;6.13;;
6135;SDS011;24008;42.664;23.372;2023-08-06T13:41:37;9.93;;;6.60;;
6135;SDS011;24008;42.664;23.372;2023-08-06T13:44:05;7.18;;;5.97;;
6135;SDS011;24008;42.664;23.372;2023-08-06T13:46:32;8.13;;;6.43;;
6135;SDS011;24008;42.664;23.372;2023-08-06T13:49:01;7.00;;;6.30;;
6135;SDS011;24008;42.664;23.372;2023-08-06T13:51:27;7.20;;;6.13;;
6135;SDS011;24008;42.664;23.372;2023-08-06T13:53:54;7.18;;;5.72;;
6135;SDS011;24008;42.664;23.372;2023-08-06T13:56:22;6.97;;;6.32;;
6135;SDS011;24008;42.664;23.372;2023-08-06T13:58:49;6.80;;;6.20;;
6135;SDS011;24008;42.664;23.372;2023-08-06T14:01:16;7.72;;;6.28;;
6135;SDS011;24008;42.664;23.372;2023-08-06T14:03:44;6.55;;;5.90;;
6135;SDS011;24008;42.664;23.372;2023-08-06T14:06:12;6.45;;;5.80;;
6135;SDS011;24008;42.664;23.372;2023-08-06T14:08:38;6.50;;;5.88;;
6135;SDS011;24008;42.664;23.372;2023-08-06T14:11:05;7.25;;;6.00;;
6135;SDS011;24008;42.664;23.372;2023-08-06T14:13:32;6.43;;;5.82;;
6135;SDS011;24008;42.664;23.372;2023-08-06T14:15:59;6.40;;;5.80;;
6135;SDS011;24008;42.664;23.372;2023-08-06T14:18:26;6.95;;;6.30;;
6135;SDS011;24008;42.664;23.372;2023-08-06T14:20:53;6.57;;;5.95;;
6135;SDS011;24008;42.664;23.372;2023-08-06T14:23:21;7.53;;;6.10;;
6135;SDS011;24008;42.664;23.372;2023-08-06T14:25:48;6.63;;;5.88;;
6135;SDS011;24008;42.664;23.372;2023-08-06T14:28:14;6.40;;;5.80;;
6135;SDS011;24008;42.664;23.372;2023-08-06T14:30:41;6.72;;;6.13;;
6135;SDS011;24008;42.664;23.372;2023-08-06T14:33:08;6.47;;;5.88;;
6135;SDS011;24008;42.664;23.372;2023-08-06T14:35:34;7.32;;;6.63;;
6135;SDS011;24008;42.664;23.372;2023-08-06T14:38:01;6.82;;;6.00;;
6135;SDS011;24008;42.664;23.372;2023-08-06T14:40:29;8.30;;;5.95;;
6135;SDS011;24008;42.664;23.372;2023-08-06T14:42:59;7.22;;;5.93;;
6135;SDS011;24008;42.664;23.372;2023-08-06T14:45:27;6.57;;;5.60;;
6135;SDS011;24008;42.664;23.372;2023-08-06T14:47:54;6.13;;;5.53;;